createdAt,value
2019-01-18T00:01:54.203Z,95347.09
2019-01-18T00:04:25.479Z,95346.36
2019-01-18T00:06:56.753Z,95347.38
2019-01-18T00:09:28.063Z,95346.87
2019-01-18T00:11:59.302Z,95335.07
2019-01-18T00:14:30.786Z,95336.34
2019-01-18T00:17:02.505Z,95337.00
2019-01-18T00:19:33.896Z,95334.74
2019-01-18T00:22:05.817Z,95346.25
2019-01-18T00:24:37.067Z,95340.59
2019-01-18T00:27:08.357Z,95352.00
2019-01-18T00:29:39.670Z,95358.69
2019-01-18T00:32:10.947Z,95347.98
2019-01-18T00:34:42.163Z,95356.22
2019-01-18T00:37:13.396Z,95349.06
2019-01-18T00:39:44.594Z,95372.56
2019-01-18T00:42:15.904Z,95364.84
2019-01-18T00:44:47.168Z,95368.28
2019-01-18T00:47:18.414Z,95363.07
2019-01-18T00:49:49.764Z,95364.62
2019-01-18T00:52:21.102Z,95369.81
2019-01-18T00:54:52.297Z,95368.97
2019-01-18T00:57:23.635Z,95370.66
2019-01-18T00:59:54.930Z,95370.38
2019-01-18T01:02:26.157Z,95381.89
2019-01-18T01:04:57.339Z,95393.33
2019-01-18T01:07:28.562Z,95407.68
2019-01-18T01:09:59.761Z,95399.50
2019-01-18T01:12:31.096Z,95412.28
2019-01-18T01:15:02.971Z,95415.13
2019-01-18T01:17:34.278Z,95414.30
2019-01-18T01:20:06.192Z,95416.22
2019-01-18T01:22:37.401Z,95423.58
2019-01-18T01:25:09.260Z,95413.72
2019-01-18T01:27:40.937Z,95418.93
2019-01-18T01:30:18.024Z,95422.89
2019-01-18T01:32:50.871Z,95424.06
2019-01-18T01:35:22.078Z,95418.78
2019-01-18T01:37:53.388Z,95420.59
2019-01-18T01:40:26.740Z,95416.34
2019-01-18T01:42:58.188Z,95416.90
2019-01-18T01:45:29.759Z,95418.80
2019-01-18T01:48:00.966Z,95419.95
2019-01-18T01:50:32.308Z,95422.86
2019-01-18T01:53:03.924Z,95425.39
2019-01-18T01:55:35.171Z,95423.78
2019-01-18T01:58:06.439Z,95424.50
2019-01-18T02:00:39.237Z,95426.66
2019-01-18T02:03:10.768Z,95421.97
2019-01-18T02:05:41.994Z,95417.74
2019-01-18T02:08:13.292Z,95420.72
2019-01-18T02:10:44.517Z,95425.06
2019-01-18T02:13:15.721Z,95423.90
2019-01-18T02:15:46.938Z,95430.88
2019-01-18T02:18:19.828Z,95440.07
2019-01-18T02:20:51.050Z,95430.86
2019-01-18T02:23:22.354Z,95426.16
2019-01-18T02:25:53.889Z,95427.08
2019-01-18T02:28:25.137Z,95421.83
2019-01-18T02:30:56.358Z,95419.50
2019-01-18T02:33:27.624Z,95418.66
2019-01-18T02:36:00.759Z,95416.86
2019-01-18T02:38:32.463Z,95411.86
2019-01-18T02:41:03.777Z,95419.13
2019-01-18T02:43:35.059Z,95416.40
2019-01-18T02:46:06.329Z,95410.78
2019-01-18T02:48:37.663Z,95413.32
2019-01-18T02:51:09.021Z,95411.00
2019-01-18T02:53:40.237Z,95411.02
2019-01-18T02:56:11.533Z,95424.05
2019-01-18T03:02:09.224Z,95424.12
2019-01-18T03:04:41.912Z,95429.22
2019-01-18T03:07:13.172Z,95433.20
2019-01-18T03:09:44.390Z,95432.58
2019-01-18T03:12:15.614Z,95439.45
2019-01-18T03:14:46.898Z,95449.33
2019-01-18T03:17:18.130Z,95448.41
2019-01-18T03:19:49.388Z,95444.70
2019-01-18T03:22:20.618Z,95457.02
2019-01-18T03:24:51.825Z,95446.70
2019-01-18T03:27:23.253Z,95454.02
2019-01-18T03:29:54.468Z,95438.03
2019-01-18T03:32:25.698Z,95439.64
2019-01-18T03:34:56.984Z,95429.90
2019-01-18T03:37:28.181Z,95428.05
2019-01-18T03:39:59.579Z,95424.53
2019-01-18T03:42:30.938Z,95428.25
2019-01-18T03:45:02.298Z,95430.69
2019-01-18T03:47:33.643Z,95432.34
2019-01-18T03:53:32.212Z,95438.66
2019-01-18T03:56:03.785Z,95443.09
2019-01-18T03:58:35.123Z,95443.25
2019-01-18T04:01:06.353Z,95435.85
2019-01-18T04:03:37.608Z,95434.05
2019-01-18T04:06:08.804Z,95435.85
2019-01-18T04:08:40.098Z,95433.51
2019-01-18T04:11:11.609Z,95430.59
2019-01-18T04:13:42.814Z,95443.25
2019-01-18T04:16:14.013Z,95446.06
2019-01-18T04:18:45.243Z,95436.03
2019-01-18T04:21:16.680Z,95439.73
2019-01-18T04:23:48.552Z,95456.38
2019-01-18T04:26:19.733Z,95440.39
2019-01-18T04:28:50.942Z,95443.72
2019-01-18T04:31:22.325Z,95437.67
2019-01-18T04:33:53.521Z,95447.59
2019-01-18T04:36:25.119Z,95450.39
2019-01-18T04:38:56.327Z,95454.30
2019-01-18T04:41:27.749Z,95464.78
2019-01-18T04:43:59.706Z,95469.48
2019-01-18T04:46:30.894Z,95474.07
2019-01-18T04:49:03.798Z,95471.63
2019-01-18T04:51:34.983Z,95474.08
2019-01-18T04:54:06.183Z,95483.48
2019-01-18T04:56:37.459Z,95483.76
2019-01-18T04:59:08.678Z,95489.98
2019-01-18T05:01:40.236Z,95503.20
2019-01-18T05:04:11.862Z,95502.11
2019-01-18T05:06:43.060Z,95508.62
2019-01-18T05:09:14.481Z,95502.30
2019-01-18T05:11:46.284Z,95505.36
2019-01-18T05:14:17.490Z,95517.20
2019-01-18T05:16:48.763Z,95499.27
2019-01-18T05:19:20.120Z,95509.41
2019-01-18T05:21:51.347Z,95515.91
2019-01-18T05:24:24.159Z,95528.16
2019-01-18T05:26:55.354Z,95537.15
2019-01-18T05:29:27.089Z,95533.43
2019-01-18T05:31:58.300Z,95541.20
2019-01-18T05:34:29.526Z,95537.53
2019-01-18T05:37:00.716Z,95559.48
2019-01-18T05:42:54.255Z,95569.42
2019-01-18T05:45:27.197Z,95571.66
2019-01-18T05:47:58.607Z,95577.27
2019-01-18T05:50:31.149Z,95580.06
2019-01-18T05:53:05.908Z,95578.80
2019-01-18T05:55:37.348Z,95581.20
2019-01-18T05:58:08.687Z,95593.45
2019-01-18T06:00:55.222Z,95598.09
2019-01-18T06:03:24.033Z,95597.28
2019-01-18T06:05:55.214Z,95601.48
2019-01-18T06:08:26.449Z,95604.87
2019-01-18T06:10:57.651Z,95623.09
2019-01-18T06:13:29.450Z,95630.81
2019-01-18T06:16:20.041Z,95628.59
2019-01-18T06:18:51.320Z,95635.63
2019-01-18T06:21:22.534Z,95638.69
2019-01-18T06:23:54.038Z,95648.31
2019-01-18T06:26:25.319Z,95640.37
2019-01-18T06:28:56.705Z,95649.35
2019-01-18T06:31:28.023Z,95660.22
2019-01-18T06:33:59.213Z,95662.66
2019-01-18T06:36:30.920Z,95664.19
2019-01-18T06:39:02.152Z,95673.08
2019-01-18T06:41:47.615Z,95686.63
2019-01-18T06:44:18.848Z,95691.91
2019-01-18T06:46:50.577Z,95705.89
2019-01-18T06:49:21.964Z,95716.27
2019-01-18T06:51:53.272Z,95718.17
2019-01-18T06:54:24.638Z,95714.48
2019-01-18T06:56:55.955Z,95719.60
2019-01-18T06:59:27.161Z,95726.63
2019-01-18T07:01:59.104Z,95727.08
2019-01-18T07:04:31.240Z,95729.53
2019-01-18T07:07:02.517Z,95739.52
2019-01-18T07:09:33.879Z,95749.55
2019-01-18T07:12:05.313Z,95747.87
2019-01-18T07:14:36.528Z,95756.36
2019-01-18T07:17:07.756Z,95763.61
2019-01-18T07:19:38.950Z,95767.82
2019-01-18T07:22:10.509Z,95763.02
2019-01-18T07:24:42.071Z,95769.41
2019-01-18T07:27:13.476Z,95774.28
2019-01-18T07:29:44.711Z,95775.52
2019-01-18T07:32:15.976Z,95787.17
2019-01-18T07:34:47.571Z,95798.72
2019-01-18T07:37:18.740Z,95808.35
2019-01-18T07:39:50.098Z,95810.94
2019-01-18T07:42:21.468Z,95812.82
2019-01-18T07:44:53.109Z,95822.92
2019-01-18T07:47:24.331Z,95831.10
2019-01-18T07:49:55.532Z,95831.64
2019-01-18T07:52:26.861Z,95833.06
2019-01-18T07:54:58.147Z,95842.49
2019-01-18T07:57:38.816Z,95852.31
2019-01-18T08:00:21.740Z,95856.31
2019-01-18T08:02:53.203Z,95861.68
2019-01-18T08:05:26.810Z,95866.06
2019-01-18T08:07:58.011Z,95871.79
2019-01-18T08:10:29.321Z,95885.09
2019-01-18T08:13:00.570Z,95883.89
2019-01-18T08:15:31.943Z,95889.73
2019-01-18T08:18:03.154Z,95889.91
2019-01-18T08:20:34.331Z,95887.81
2019-01-18T08:23:05.791Z,95895.11
2019-01-18T08:28:38.475Z,95835.73
2019-01-18T08:31:11.394Z,95912.09
2019-01-18T08:33:42.615Z,95920.28
2019-01-18T08:36:13.916Z,95927.44
2019-01-18T08:38:45.770Z,95936.91
2019-01-18T08:41:17.028Z,95935.73
2019-01-18T08:43:48.877Z,95943.92
2019-01-18T08:46:20.623Z,95942.16
2019-01-18T08:48:51.853Z,95940.13
2019-01-18T08:51:23.561Z,95939.77
2019-01-18T08:53:55.138Z,95948.80
2019-01-18T08:56:26.350Z,95949.97
2019-01-18T08:58:57.553Z,95959.13
2019-01-18T09:01:35.540Z,95954.05
2019-01-18T09:04:02.445Z,95956.31
2019-01-18T09:06:33.732Z,95963.30
2019-01-18T09:09:08.179Z,95964.11
2019-01-18T09:11:39.486Z,95966.70
2019-01-18T09:14:10.696Z,95967.95
2019-01-18T09:16:42.121Z,95973.03
2019-01-18T09:19:13.958Z,95983.41
2019-01-18T09:21:47.796Z,95981.25
2019-01-18T09:24:20.742Z,95981.09
2019-01-18T09:26:51.975Z,95986.45
2019-01-18T09:29:23.271Z,96000.30
2019-01-18T09:31:54.506Z,96005.44
2019-01-18T09:34:25.875Z,96009.36
2019-01-18T09:36:57.112Z,96014.64
2019-01-18T09:39:28.450Z,96014.77
2019-01-18T09:41:59.837Z,96009.70
2019-01-18T09:44:31.140Z,96010.05
2019-01-18T09:47:02.494Z,96015.86
2019-01-18T09:49:33.918Z,96011.07
2019-01-18T09:52:05.231Z,96011.69
2019-01-18T09:54:36.406Z,96014.80
2019-01-18T09:57:07.678Z,96013.06
2019-01-18T09:59:38.890Z,96011.72
2019-01-18T10:02:10.144Z,96027.72
2019-01-18T10:04:41.357Z,96031.88
2019-01-18T10:07:12.706Z,96037.17
2019-01-18T10:09:44.130Z,96036.42
2019-01-18T10:12:15.610Z,96027.65
2019-01-18T10:14:47.200Z,96035.75
2019-01-18T10:17:18.887Z,96043.94
2019-01-18T10:19:50.238Z,96044.84
2019-01-18T10:22:21.672Z,96046.26
2019-01-18T10:24:53.336Z,96040.30
2019-01-18T10:27:26.039Z,96045.11
2019-01-18T10:29:59.743Z,96040.41
2019-01-18T10:32:36.107Z,96043.31
2019-01-18T10:35:07.518Z,96045.64
2019-01-18T10:37:40.978Z,96049.77
2019-01-18T10:40:15.512Z,96055.88
2019-01-18T10:42:51.207Z,96056.38
2019-01-18T10:45:22.595Z,96055.30
2019-01-18T10:47:54.111Z,96047.53
2019-01-18T10:50:27.784Z,96051.73
2019-01-18T10:52:59.373Z,96048.11
2019-01-18T10:55:30.988Z,96047.23
2019-01-18T10:58:02.315Z,96050.08
2019-01-18T11:00:36.210Z,96045.07
2019-01-18T11:03:07.428Z,96049.48
2019-01-18T11:05:38.662Z,96051.66
2019-01-18T11:08:10.610Z,96052.97
2019-01-18T11:10:43.040Z,96054.22
2019-01-18T11:13:14.548Z,96043.38
2019-01-18T11:15:47.370Z,96039.34
2019-01-18T11:18:19.092Z,96044.53
2019-01-18T11:21:07.601Z,96039.84
2019-01-18T11:23:39.140Z,96039.73
2019-01-18T11:26:10.368Z,96043.83
2019-01-18T11:28:42.337Z,96032.82
2019-01-18T11:31:13.635Z,96044.33
2019-01-18T11:33:44.943Z,96045.72
2019-01-18T11:36:16.280Z,96043.23
2019-01-18T11:38:47.634Z,96052.44
2019-01-18T11:41:19.029Z,96040.55
2019-01-18T11:43:50.744Z,96047.95
2019-01-18T11:46:22.189Z,96052.45
2019-01-18T11:48:54.992Z,96046.86
2019-01-18T11:51:53.720Z,96054.27
2019-01-18T11:54:24.939Z,96045.36
2019-01-18T11:56:56.237Z,96044.33
2019-01-18T11:59:27.507Z,96048.41
2019-01-18T12:01:58.824Z,96052.42
2019-01-18T12:04:30.015Z,96037.99
2019-01-18T12:07:01.895Z,96048.71
2019-01-18T12:09:33.161Z,96031.09
2019-01-18T12:12:04.344Z,96032.70
2019-01-18T12:14:35.774Z,96036.02
2019-01-18T12:17:07.052Z,96032.35
2019-01-18T12:19:38.261Z,96035.81
2019-01-18T12:22:09.499Z,96038.72
2019-01-18T12:24:40.783Z,96044.42
2019-01-18T12:27:12.434Z,96049.12
2019-01-18T12:29:43.766Z,96048.80
2019-01-18T12:32:14.982Z,96039.69
2019-01-18T12:34:46.263Z,96049.59
2019-01-18T12:37:17.439Z,96050.36
2019-01-18T12:39:49.134Z,96048.62
2019-01-18T12:42:20.794Z,96054.99
2019-01-18T12:44:52.201Z,96059.20
2019-01-18T12:47:23.408Z,96051.11
2019-01-18T12:49:54.627Z,96056.42
2019-01-18T12:52:25.926Z,96062.80
2019-01-18T12:54:57.453Z,96072.34
2019-01-18T12:57:28.687Z,96070.71
2019-01-18T12:59:59.960Z,96069.84
2019-01-18T13:02:35.321Z,96080.83
2019-01-18T13:05:05.869Z,96080.86
2019-01-18T13:07:38.926Z,96084.94
2019-01-18T13:10:12.394Z,96078.83
2019-01-18T13:12:44.060Z,96088.95
2019-01-18T13:15:25.319Z,96082.28
2019-01-18T13:17:56.644Z,96088.53
2019-01-18T13:20:27.881Z,96084.98
2019-01-18T13:22:59.061Z,96087.30
2019-01-18T13:25:30.528Z,96087.95
2019-01-18T13:28:01.809Z,96087.05
2019-01-18T13:30:33.599Z,96091.55
2019-01-18T13:33:05.023Z,96082.89
2019-01-18T13:35:36.454Z,96084.63
2019-01-18T13:38:07.707Z,96080.10
2019-01-18T13:40:38.941Z,96092.88
2019-01-18T13:43:10.244Z,96094.67
2019-01-18T13:45:41.676Z,96087.20
2019-01-18T13:51:48.923Z,96096.79
2019-01-18T13:54:20.164Z,96101.45
2019-01-18T13:56:51.442Z,96103.69
2019-01-18T13:59:22.698Z,96104.09
2019-01-18T14:01:53.887Z,96111.31
2019-01-18T14:04:25.399Z,96104.47
2019-01-18T14:06:56.681Z,96111.96
2019-01-18T14:09:28.031Z,96109.02
2019-01-18T14:11:59.437Z,96106.87
2019-01-18T14:14:30.764Z,96115.56
2019-01-18T14:17:02.363Z,96109.60
2019-01-18T14:19:33.959Z,96107.36
2019-01-18T14:22:05.171Z,96118.61
2019-01-18T14:24:36.527Z,96114.34
2019-01-18T14:27:07.778Z,96122.42
2019-01-18T14:29:39.083Z,96126.70
2019-01-18T14:32:10.311Z,96126.80
2019-01-18T14:34:41.601Z,96135.23
2019-01-18T14:37:12.919Z,96137.77
2019-01-18T14:39:44.140Z,96133.69
2019-01-18T14:42:15.409Z,96135.73
2019-01-18T14:44:46.657Z,96142.89
2019-01-18T14:47:17.921Z,96137.73
2019-01-18T14:49:49.122Z,96140.57
2019-01-18T14:52:20.556Z,96149.56
2019-01-18T14:54:51.874Z,96144.73
2019-01-18T14:57:23.259Z,96153.28
2019-01-18T14:59:54.902Z,96159.48
2019-01-18T15:02:26.193Z,96159.63
2019-01-18T15:04:57.483Z,96156.28
2019-01-18T15:07:28.716Z,96167.08
2019-01-18T15:10:04.979Z,96163.70
2019-01-18T15:12:33.504Z,96162.31
2019-01-18T15:15:05.461Z,96165.33
2019-01-18T15:17:36.647Z,96161.14
2019-01-18T15:20:12.909Z,96163.02
2019-01-18T15:22:44.530Z,96166.34
2019-01-18T15:25:15.723Z,96175.78
2019-01-18T15:27:47.027Z,96176.03
2019-01-18T15:30:20.649Z,96179.88
2019-01-18T15:32:51.870Z,96182.04
2019-01-18T15:35:26.196Z,96180.93
2019-01-18T15:37:59.065Z,96188.95
2019-01-18T15:40:33.253Z,96191.06
2019-01-18T15:43:04.728Z,96199.42
2019-01-18T15:45:36.429Z,96199.64
2019-01-18T15:48:07.758Z,96203.47
2019-01-18T15:50:39.701Z,96207.27
2019-01-18T15:53:10.981Z,96205.98
2019-01-18T15:55:42.198Z,96202.98
2019-01-18T15:58:13.439Z,96212.41
2019-01-18T16:00:45.286Z,96205.28
2019-01-18T16:03:16.469Z,96212.72
2019-01-18T16:05:47.692Z,96213.74
2019-01-18T16:08:18.971Z,96211.16
2019-01-18T16:10:50.216Z,96215.15
2019-01-18T16:13:23.232Z,96218.44
2019-01-18T16:16:21.643Z,96219.11
2019-01-18T16:18:54.444Z,96221.90
2019-01-18T16:21:25.949Z,96221.83
2019-01-18T16:23:57.365Z,96220.06
2019-01-18T16:26:28.611Z,96217.61
2019-01-18T16:29:00.517Z,96213.98
2019-01-18T16:31:31.751Z,96220.56
2019-01-18T16:34:03.039Z,96222.43
2019-01-18T16:36:34.375Z,96223.84
2019-01-18T16:39:09.210Z,96225.41
2019-01-18T16:41:40.767Z,96232.14
2019-01-18T16:44:12.144Z,96232.19
2019-01-18T16:50:10.242Z,96235.78
2019-01-18T16:52:41.565Z,96235.16
2019-01-18T16:55:14.008Z,96240.88
2019-01-18T16:57:46.841Z,96244.12
2019-01-18T17:00:21.249Z,96244.31
2019-01-18T17:02:52.504Z,96244.19
2019-01-18T17:05:23.877Z,96245.88
2019-01-18T17:07:55.214Z,96252.28
2019-01-18T17:10:26.883Z,96253.83
2019-01-18T17:12:58.670Z,96257.33
2019-01-18T17:15:29.989Z,96262.94
2019-01-18T17:18:01.368Z,96265.80
2019-01-18T17:20:35.841Z,96276.32
2019-01-18T17:23:07.243Z,96283.33
2019-01-18T17:25:38.797Z,96281.91
2019-01-18T17:28:11.044Z,96293.23
2019-01-18T17:30:42.497Z,96296.02
2019-01-18T17:33:14.107Z,96298.61
2019-01-18T17:35:59.155Z,96303.44
2019-01-18T17:39:13.218Z,96301.78
2019-01-18T17:42:27.358Z,96308.86
2019-01-18T17:45:46.023Z,96307.59
2019-01-18T17:48:32.340Z,96316.80
2019-01-18T17:52:00.025Z,96318.72
2019-01-18T17:54:52.073Z,96323.05
2019-01-18T17:57:56.483Z,96333.09
2019-01-18T18:01:03.772Z,96340.89
2019-01-18T18:04:06.669Z,96344.27
2019-01-18T18:07:17.857Z,96345.47
2019-01-18T18:10:29.393Z,96345.76
2019-01-18T18:13:41.770Z,96353.80
2019-01-18T18:17:01.849Z,96355.18
2019-01-18T18:19:57.084Z,96352.19
2019-01-18T18:23:20.159Z,96350.55
2019-01-18T18:26:41.366Z,96356.44
2019-01-18T18:30:01.399Z,96356.06
2019-01-18T18:33:12.572Z,96355.23
2019-01-18T18:36:34.156Z,96355.66
2019-01-18T18:39:41.000Z,96362.96
2019-01-18T18:42:29.164Z,96359.80
2019-01-18T18:45:26.987Z,96365.84
2019-01-18T18:48:13.152Z,96367.59
2019-01-18T18:51:21.199Z,96367.58
2019-01-18T18:54:42.607Z,96366.76
2019-01-18T18:57:53.694Z,96366.24
2019-01-18T19:00:39.989Z,96362.89
2019-01-18T19:03:42.856Z,96368.74
2019-01-18T19:06:59.358Z,96366.38
2019-01-18T19:09:58.814Z,96372.78
2019-01-18T19:13:17.800Z,96371.27
2019-01-18T19:16:24.345Z,96373.94
2019-01-18T19:19:33.036Z,96364.56
2019-01-18T19:22:47.466Z,96359.20
2019-01-18T19:25:43.608Z,96360.48
2019-01-18T19:28:51.713Z,96362.30
2019-01-18T19:32:03.576Z,96362.45
2019-01-18T19:35:31.026Z,96364.94
2019-01-18T19:38:32.727Z,96362.56
2019-01-18T19:41:34.422Z,96361.42
2019-01-18T19:44:59.194Z,96365.60
2019-01-18T19:47:42.097Z,96363.78
2019-01-18T19:50:56.084Z,96364.04
2019-01-18T19:53:55.789Z,96364.97
2019-01-18T19:57:04.145Z,96358.32
2019-01-18T20:00:09.359Z,96365.18
2019-01-18T20:03:01.461Z,96362.68
2019-01-18T20:06:15.616Z,96368.12
2019-01-18T20:09:12.984Z,96370.11
2019-01-18T20:12:23.482Z,96370.11
2019-01-18T20:15:08.037Z,96377.92
2019-01-18T20:18:25.399Z,96377.53
2019-01-18T20:21:18.747Z,96381.30
2019-01-18T20:24:34.949Z,96389.06
2019-01-18T20:27:20.950Z,96390.05
2019-01-18T20:30:38.469Z,96395.77
2019-01-18T20:34:00.080Z,96394.88
2019-01-18T20:37:14.532Z,96400.69
2019-01-18T20:40:26.778Z,96402.46
2019-01-18T20:43:51.085Z,96409.41
2019-01-18T20:47:01.696Z,96411.87
2019-01-18T20:50:10.334Z,96406.80
2019-01-18T20:52:58.606Z,96403.40
2019-01-18T20:55:53.228Z,96408.19
2019-01-18T20:58:57.524Z,96407.88
2019-01-18T21:02:22.374Z,96406.14
2019-01-18T21:05:24.696Z,96406.32
2019-01-18T21:08:10.900Z,96401.44
2019-01-18T21:11:13.611Z,96399.70
2019-01-18T21:14:07.553Z,96395.94
2019-01-18T21:17:10.276Z,96401.71
2019-01-18T21:20:24.593Z,96407.00
2019-01-18T21:23:13.067Z,96405.38
2019-01-18T21:26:06.733Z,96408.14
2019-01-18T21:29:40.387Z,96409.72
2019-01-18T21:32:28.356Z,96410.81
2019-01-18T21:35:15.358Z,96412.98
2019-01-18T21:38:15.254Z,96414.36
2019-01-18T21:41:14.557Z,96416.92
2019-01-18T21:44:27.282Z,96425.54
2019-01-18T21:47:35.889Z,96425.91
2019-01-18T21:50:24.093Z,96430.18
2019-01-18T21:53:44.486Z,96428.84
2019-01-18T21:56:52.995Z,96424.91
2019-01-18T21:59:59.905Z,96429.79
2019-01-18T22:03:21.542Z,96419.21
2019-01-18T22:06:24.622Z,96426.02
2019-01-18T22:09:35.481Z,96437.66
2019-01-18T22:12:42.636Z,96433.46
2019-01-18T22:16:13.195Z,96428.63
2019-01-18T22:19:28.261Z,96440.19
2019-01-18T22:22:19.521Z,96440.23
2019-01-18T22:25:29.221Z,96433.53
2019-01-18T22:28:35.226Z,96434.03
2019-01-18T22:31:46.279Z,96435.36
2019-01-18T22:34:39.981Z,96429.36
2019-01-18T22:37:41.768Z,96425.63
2019-01-18T22:41:00.200Z,96425.02
2019-01-18T22:44:09.652Z,96431.05
2019-01-18T22:47:19.185Z,96426.31
2019-01-18T22:50:43.058Z,96423.53
2019-01-18T22:54:01.518Z,96424.93
2019-01-18T22:56:50.705Z,96415.25
2019-01-18T22:59:57.053Z,96405.98
2019-01-18T23:03:09.658Z,96418.17
2019-01-18T23:06:05.705Z,96413.13
2019-01-18T23:09:13.678Z,96418.11
2019-01-18T23:12:01.526Z,96412.20
2019-01-18T23:15:06.353Z,96409.27
2019-01-18T23:17:49.275Z,96404.16
2019-01-18T23:21:03.162Z,96400.61
2019-01-18T23:24:03.865Z,96403.81
2019-01-18T23:27:03.875Z,96413.00
2019-01-18T23:30:06.693Z,96408.92
2019-01-18T23:33:24.583Z,96406.91
2019-01-18T23:36:27.216Z,96404.89
2019-01-18T23:39:54.491Z,96400.78
2019-01-18T23:43:05.935Z,96404.98
2019-01-18T23:46:15.506Z,96405.16
2019-01-18T23:49:06.983Z,96405.61
2019-01-18T23:52:28.176Z,96404.00
2019-01-18T23:55:52.182Z,96401.91
2019-01-18T23:59:12.751Z,96397.10
